Latest Weather Observations for Hope Banks Beacon

IDQ60901

Issued at 5:51 am EST Wednesday 2 September 2026 (issued every 10 minutes, with the page automatically refreshed every 10 minutes)

About weather observations | Map of Brisbane area stations | Latest observations for Brisbane area | Other Formats
Station Details ID: 200897 Name: HOPE BANKS BEACON Lat: -27.43 Lon: 153.29 Height: 7.0 m
Data from the previous 72 hours. | See also: Recent months for locations in Queensland
Date/Time
EST
Temp
°C
App
Temp
°C
Dew
Point
°C
Rel
Hum
%
Delta-T
°C
Wind Press
QNH
hPa
Press
MSL
hPa
Rain since
9am
mm
Dir  Spd
km/h
Gust
km/h
Spd
kts
Gust
kts
02/05:30am - - - - - W 9 11 5 6 - - -
02/05:00am - - - - - W 11 13 6 7 - - -
02/04:30am - - - - - W 13 15 7 8 - - -
02/04:00am - - - - - W 11 13 6 7 - - -
02/03:30am - - - - - WNW 15 17 8 9 - - -
02/03:00am - - - - - WNW 13 17 7 9 - - -
02/02:30am - - - - - WNW 13 17 7 9 - - -
02/02:00am - - - - - NW 13 17 7 9 - - -
02/01:30am - - - - - NW 13 15 7 8 - - -
02/01:00am - - - - - NW 11 13 6 7 - - -
02/12:30am - - - - - NW 9 13 5 7 - - -
02/12:00am - - - - - NW 11 15 6 8 - - -
 
Date/Time
EST
Temp
°C
App
Temp
°C
Dew
Point
°C
Rel
Hum
%
Delta-T
°C
Wind Press
QNH
hPa
Press
MSL
hPa
Rain since
9am
mm
Dir  Spd
km/h
Gust
km/h
Spd
kts
Gust
kts
01/11:30pm - - - - - NNW 13 15 7 8 - - -
01/11:00pm - - - - - N 17 20 9 11 - - -
01/10:30pm - - - - - N 17 19 9 10 - - -
01/10:00pm - - - - - N 13 15 7 8 - - -
01/09:30pm - - - - - N 13 15 7 8 - - -
01/09:00pm - - - - - N 11 13 6 7 - - -
01/08:30pm - - - - - NNW 9 11 5 6 - - -
01/08:00pm - - - - - NNW 7 9 4 5 - - -
01/07:30pm - - - - - NNW 7 9 4 5 - - -
01/07:00pm - - - - - NNW 11 11 6 6 - - -
01/06:30pm - - - - - N 13 15 7 8 - - -
01/06:00pm - - - - - N 13 15 7 8 - - -
01/05:30pm - - - - - N 11 13 6 7 - - -
01/05:00pm - - - - - NNE 11 17 6 9 - - -
01/04:30pm - - - - - NNE 6 7 3 4 - - -
01/04:00pm - - - - - NE 7 11 4 6 - - -
01/03:30pm - - - - - N 6 9 3 5 - - -
01/03:00pm - - - - - NNW 6 9 3 5 - - -
01/02:30pm - - - - - NNW 2 6 1 3 - - -
01/02:00pm - - - - - CALM 0 0 0 0 - - -
01/01:30pm - - - - - NNW 4 6 2 3 - - -
01/01:00pm - - - - - NW 4 6 2 3 - - -
01/12:30pm - - - - - WNW 6 7 3 4 - - -
01/12:00pm - - - - - WNW 7 9 4 5 - - -
01/11:30am - - - - - W 7 9 4 5 - - -
01/11:00am - - - - - WSW 9 11 5 6 - - -
01/10:30am - - - - - WSW 9 13 5 7 - - -
01/10:00am - - - - - WNW 7 9 4 5 - - -
01/09:30am - - - - - WNW 9 11 5 6 - - -
01/09:00am - - - - - W 11 13 6 7 - - -
01/08:30am - - - - - WNW 9 13 5 7 - - -
01/08:00am - - - - - WNW 9 13 5 7 - - -
01/07:30am - - - - - W 11 15 6 8 - - -
01/07:00am - - - - - W 15 22 8 12 - - -
01/06:30am - - - - - S 17 19 9 10 - - -
01/06:00am - - - - - SSE 17 20 9 11 - - -
01/05:30am - - - - - S 19 22 10 12 - - -
01/05:00am - - - - - SSW 17 20 9 11 - - -
01/04:30am - - - - - SW 15 19 8 10 - - -
01/04:00am - - - - - WSW 11 15 6 8 - - -
01/03:30am - - - - - W 9 11 5 6 - - -
01/03:00am - - - - - WSW 13 15 7 8 - - -
01/02:30am - - - - - SSW 15 17 8 9 - - -
01/02:00am - - - - - SSW 15 17 8 9 - - -
01/01:30am - - - - - SSW 17 19 9 10 - - -
01/01:00am - - - - - S 17 19 9 10 - - -
01/12:30am - - - - - S 15 19 8 10 - - -
01/12:00am - - - - - SSE 15 17 8 9 - - -
 
Date/Time
EST
Temp
°C
App
Temp
°C
Dew
Point
°C
Rel
Hum
%
Delta-T
°C
Wind Press
QNH
hPa
Press
MSL
hPa
Rain since
9am
mm
Dir  Spd
km/h
Gust
km/h
Spd
kts
Gust
kts
31/11:30pm - - - - - SSW 13 15 7 8 - - -
31/11:00pm - - - - - S 11 13 6 7 - - -
31/10:30pm - - - - - SE 11 13 6 7 - - -
31/10:00pm - - - - - SSE 17 20 9 11 - - -
31/09:30pm - - - - - S 19 20 10 11 - - -
31/09:00pm - - - - - S 19 22 10 12 - - -
31/08:30pm - - - - - SSE 15 30 8 16 - - -
31/08:00pm - - - - - W 6 9 3 5 - - -
31/07:30pm - - - - - NE 7 9 4 5 - - -
31/07:00pm - - - - - SE 15 19 8 10 - - -
31/06:30pm - - - - - ENE 13 15 7 8 - - -
31/06:00pm - - - - - ENE 15 17 8 9 - - -
31/05:30pm - - - - - ENE 13 15 7 8 - - -
31/05:00pm - - - - - ENE 17 20 9 11 - - -
31/04:30pm - - - - - E 20 24 11 13 - - -
31/04:00pm - - - - - E 32 39 17 21 - - -
31/03:30pm - - - - - ESE 30 33 16 18 - - -
31/03:00pm - - - - - ESE 32 35 17 19 - - -
31/02:30pm - - - - - SE 26 35 14 19 - - -
31/02:00pm - - - - - SE 26 32 14 17 - - -
31/01:30pm - - - - - SE 22 30 12 16 - - -
31/01:00pm - - - - - ESE 22 28 12 15 - - -
31/12:30pm - - - - - SE 30 37 16 20 - - -
31/12:00pm - - - - - SE 24 32 13 17 - - -
31/11:30am - - - - - SSE 22 26 12 14 - - -
31/11:00am - - - - - S 17 19 9 10 - - -
31/10:30am - - - - - SSW 15 17 8 9 - - -
31/10:00am - - - - - SSW 15 20 8 11 - - -
31/09:30am - - - - - S 17 20 9 11 - - -
31/09:00am - - - - - SSW 15 17 8 9 - - -
31/08:30am - - - - - WNW 7 9 4 5 - - -
31/08:00am - - - - - W 11 13 6 7 - - -
31/07:30am - - - - - WSW 13 15 7 8 - - -
31/07:00am - - - - - W 13 15 7 8 - - -
31/06:30am - - - - - WSW 11 13 6 7 - - -
31/06:00am - - - - - SW 15 17 8 9 - - -
31/05:30am - - - - - SW 15 19 8 10 - - -
31/05:00am - - - - - SW 15 17 8 9 - - -
31/04:30am - - - - - SW 15 17 8 9 - - -
31/04:00am - - - - - SW 15 17 8 9 - - -
31/03:30am - - - - - SW 13 17 7 9 - - -
31/03:00am - - - - - WSW 13 17 7 9 - - -
31/02:30am - - - - - SW 15 17 8 9 - - -
31/02:00am - - - - - SW 15 17 8 9 - - -
31/01:30am - - - - - SW 17 19 9 10 - - -
31/01:00am - - - - - SW 13 15 7 8 - - -
31/12:30am - - - - - SSW 15 20 8 11 - - -
31/12:00am - - - - - S 15 19 8 10 - - -
 
Date/Time
EST
Temp
°C
App
Temp
°C
Dew
Point
°C
Rel
Hum
%
Delta-T
°C
Wind Press
QNH
hPa
Press
MSL
hPa
Rain since
9am
mm
Dir  Spd
km/h
Gust
km/h
Spd
kts
Gust
kts
30/11:30pm - - - - - S 17 20 9 11 - - -
30/11:00pm - - - - - S 19 20 10 11 - - -
30/10:30pm - - - - - SSW 17 20 9 11 - - -
30/10:00pm - - - - - SSE 17 20 9 11 - - -
30/09:30pm - - - - - SSE 20 26 11 14 - - -
30/09:00pm - - - - - SE 26 32 14 17 - - -
30/08:30pm - - - - - SSE 26 32 14 17 - - -
30/08:00pm - - - - - SE 24 28 13 15 - - -
30/07:30pm - - - - - SE 26 33 14 18 - - -
30/07:00pm - - - - - SE 28 35 15 19 - - -
30/06:30pm - - - - - SE 26 33 14 18 - - -
30/06:00pm - - - - - SE 28 37 15 20 - - -
30/05:30pm - - - - - SE 30 37 16 20 - - -
30/05:00pm - - - - - SE 33 43 18 23 - - -
30/04:30pm - - - - - SE 33 39 18 21 - - -
30/04:00pm - - - - - SE 33 39 18 21 - - -
30/03:30pm - - - - - SE 33 39 18 21 - - -
30/03:00pm - - - - - SE 32 37 17 20 - - -
30/02:30pm - - - - - SE 28 35 15 19 - - -
30/02:00pm - - - - - SE 28 35 15 19 - - -
30/01:30pm - - - - - SE 30 35 16 19 - - -
30/01:00pm - - - - - SE 30 33 16 18 - - -
30/12:30pm - - - - - SE 28 33 15 18 - - -
30/12:00pm - - - - - SSE 28 33 15 18 - - -
30/11:30am - - - - - SSE 26 30 14 16 - - -
30/11:00am - - - - - SSE 26 32 14 17 - - -
30/10:30am - - - - - SSE 26 32 14 17 - - -
30/10:00am - - - - - S 19 30 10 16 - - -
30/09:30am - - - - - W 11 13 6 7 - - -
30/09:00am - - - - - WNW 11 13 6 7 - - -
30/08:30am - - - - - WNW 9 11 5 6 - - -
30/08:00am - - - - - NW 7 9 4 5 - - -
30/07:30am - - - - - WNW 9 11 5 6 - - -
30/07:00am - - - - - W 11 13 6 7 - - -
30/06:30am - - - - - S 15 20 8 11 - - -
30/06:00am - - - - - S 22 26 12 14 - - -

Latest Capital City Observations: Canberra | Sydney | Melbourne | Brisbane | Adelaide | Perth | Hobart | Darwin

Other formats

Comma delimited format used in spreadsheet applications
http://www.bom.gov.au/fwo/IDQ60901/IDQ60901.99497.axf

JavaScript Object Notation format (JSON) in row-major order
http://www.bom.gov.au/fwo/IDQ60901/IDQ60901.99497.json

Data quality

Most of these data are generated automatically and are frequently updated. Quality checks on data are not normally performed. It is possible for incorrect values to appear. Refer to information at About Latest Weather Observations and please check the disclaimer before using these data.